createdAt,value
2018-05-10T00:00:23.691Z,982.87
2018-05-10T00:01:33.165Z,982.85
2018-05-10T00:02:43.177Z,982.85
2018-05-10T00:03:52.662Z,982.85
2018-05-10T00:05:02.147Z,982.87
2018-05-10T00:06:11.359Z,982.91
2018-05-10T00:07:21.373Z,982.92
2018-05-10T00:08:31.116Z,982.91
2018-05-10T00:09:41.132Z,982.87
2018-05-10T00:10:51.139Z,982.92
2018-05-10T00:12:01.147Z,982.9
2018-05-10T00:13:10.891Z,982.89
2018-05-10T00:14:20.637Z,982.89
2018-05-10T00:15:30.386Z,982.89
2018-05-10T00:16:40.400Z,982.89
2018-05-10T00:17:50.407Z,982.85
2018-05-10T00:19:00.420Z,982.85
2018-05-10T00:20:09.628Z,982.86
2018-05-10T00:21:19.657Z,982.81
2018-05-10T00:22:29.674Z,982.8
2018-05-10T00:23:39.148Z,982.83
2018-05-10T00:24:49.157Z,982.84
2018-05-10T00:25:58.899Z,982.85
2018-05-10T00:27:08.105Z,982.85
2018-05-10T00:28:17.580Z,982.84
2018-05-10T00:29:27.055Z,982.86
2018-05-10T00:30:36.815Z,982.8
2018-05-10T00:31:46.564Z,982.86
2018-05-10T00:32:56.039Z,982.86
2018-05-10T00:34:06.049Z,982.85
2018-05-10T00:35:15.799Z,982.86
2018-05-10T00:36:25.826Z,982.85
2018-05-10T00:37:35.833Z,982.82
2018-05-10T00:38:45.846Z,982.85
2018-05-10T00:39:55.869Z,982.92
2018-05-10T00:41:05.344Z,982.86
2018-05-10T00:42:14.832Z,982.86
2018-05-10T00:43:24.840Z,982.89
2018-05-10T00:44:34.873Z,982.87
2018-05-10T00:45:44.887Z,982.85
2018-05-10T00:46:54.905Z,982.85
2018-05-10T00:48:04.914Z,982.82
2018-05-10T00:49:14.676Z,982.87
2018-05-10T00:50:24.430Z,982.86
2018-05-10T00:51:34.446Z,982.85
2018-05-10T00:52:43.922Z,982.83
2018-05-10T00:53:53.664Z,982.79
2018-05-10T00:55:03.407Z,982.85
2018-05-10T00:56:12.621Z,982.81
2018-05-10T00:57:22.650Z,982.86
2018-05-10T00:58:31.842Z,982.79
2018-05-10T00:59:41.865Z,982.86
2018-05-10T01:00:51.633Z,982.83
2018-05-10T01:02:00.844Z,982.86
2018-05-10T01:03:10.601Z,982.85
2018-05-10T01:04:20.623Z,982.86
2018-05-10T01:05:30.380Z,982.85
2018-05-10T01:06:40.121Z,982.86
2018-05-10T01:07:49.329Z,982.84
2018-05-10T01:08:59.079Z,982.86
2018-05-10T01:10:08.554Z,982.83
2018-05-10T01:11:18.571Z,982.86
2018-05-10T01:12:28.597Z,982.85
2018-05-10T01:13:38.617Z,982.84
2018-05-10T01:14:48.628Z,982.88
2018-05-10T01:15:58.373Z,982.89
2018-05-10T01:17:08.134Z,982.86
2018-05-10T01:18:18.146Z,982.89
2018-05-10T01:19:28.160Z,982.83
2018-05-10T01:20:37.634Z,982.87
2018-05-10T01:21:47.644Z,982.84
2018-05-10T01:22:57.655Z,982.83
2018-05-10T01:24:07.672Z,982.86
2018-05-10T01:25:17.424Z,982.91
2018-05-10T01:26:26.900Z,982.88
2018-05-10T01:27:36.914Z,982.86
2018-05-10T01:28:46.660Z,982.84
2018-05-10T01:29:56.411Z,982.86
2018-05-10T01:31:05.895Z,982.88
2018-05-10T01:32:15.640Z,982.85
2018-05-10T01:33:25.223Z,982.91
2018-05-10T01:34:35.241Z,982.9
2018-05-10T01:35:44.988Z,982.91
2018-05-10T01:36:55.053Z,982.91
2018-05-10T01:38:05.147Z,982.95
2018-05-10T01:39:14.892Z,982.95
2018-05-10T01:40:24.632Z,982.96
2018-05-10T01:41:34.648Z,982.97
2018-05-10T01:42:44.655Z,982.97
2018-05-10T01:43:54.404Z,983
2018-05-10T01:45:04.152Z,982.99
2018-05-10T01:46:13.629Z,982.97
2018-05-10T01:47:23.652Z,982.9
2018-05-10T01:48:33.670Z,982.88
2018-05-10T01:49:43.687Z,982.94
2018-05-10T01:50:53.436Z,982.92
2018-05-10T01:52:03.186Z,982.92
2018-05-10T01:53:12.936Z,982.9
2018-05-10T01:54:22.679Z,982.95
2018-05-10T01:55:32.420Z,982.87
2018-05-10T01:56:42.436Z,982.89
2018-05-10T01:57:52.181Z,982.87
2018-05-10T01:59:02.017Z,982.89
2018-05-10T02:00:12.034Z,982.93
2018-05-10T02:01:22.049Z,982.89
2018-05-10T02:02:31.627Z,982.9
2018-05-10T02:03:40.836Z,982.88
2018-05-10T02:04:50.588Z,982.89
2018-05-10T02:06:00.341Z,982.84
2018-05-10T02:07:10.358Z,982.88
2018-05-10T02:08:20.378Z,982.88
2018-05-10T02:09:30.130Z,982.87
2018-05-10T02:10:40.143Z,982.89
2018-05-10T02:11:49.623Z,982.87
2018-05-10T02:12:59.640Z,982.91
2018-05-10T02:14:09.713Z,982.89
2018-05-10T02:15:19.201Z,982.93
2018-05-10T02:16:29.215Z,982.98
2018-05-10T02:17:38.971Z,982.95
2018-05-10T02:18:48.984Z,983
2018-05-10T02:19:58.724Z,982.98
2018-05-10T02:21:08.470Z,982.99
2018-05-10T02:22:18.480Z,983.02
2018-05-10T02:23:28.509Z,983.04
2018-05-10T02:24:38.516Z,983.01
2018-05-10T02:25:48.527Z,982.98
2018-05-10T02:26:58.536Z,983.03
2018-05-10T02:28:08.026Z,982.99
2018-05-10T02:29:17.775Z,982.98
2018-05-10T02:30:27.790Z,982.98
2018-05-10T02:31:37.842Z,982.99
2018-05-10T02:32:47.860Z,982.98
2018-05-10T02:33:57.886Z,982.98
2018-05-10T02:35:07.646Z,983
2018-05-10T02:36:17.400Z,982.98
2018-05-10T02:37:27.019Z,982.98
2018-05-10T02:38:36.233Z,982.97
2018-05-10T02:39:46.256Z,982.94
2018-05-10T02:40:56.011Z,982.92
2018-05-10T02:42:06.023Z,982.95
2018-05-10T02:43:16.051Z,982.97
2018-05-10T02:44:26.083Z,982.96
2018-05-10T02:45:35.850Z,982.96
2018-05-10T02:46:45.887Z,982.97
2018-05-10T02:47:55.916Z,982.94
2018-05-10T02:49:04.860Z,982.96
2018-05-10T02:50:14.617Z,982.95
2018-05-10T02:51:24.361Z,983.01
2018-05-10T02:52:34.111Z,983
2018-05-10T02:53:43.321Z,982.97
2018-05-10T02:54:53.342Z,982.98
2018-05-10T02:56:02.841Z,983.01
2018-05-10T02:57:12.883Z,983.05
2018-05-10T02:58:22.905Z,983.02
2018-05-10T02:59:32.919Z,983.03
2018-05-10T03:03:25.630Z,983.08
2018-05-10T03:04:35.644Z,983.08
2018-05-10T03:05:45.660Z,983.05
2018-05-10T03:06:55.135Z,983.06
2018-05-10T03:08:05.165Z,983.07
2018-05-10T03:09:15.261Z,983.11
2018-05-10T03:10:25.009Z,983.09
2018-05-10T03:11:35.031Z,983.05
2018-05-10T03:12:45.060Z,983.06
2018-05-10T03:13:54.805Z,983.1
2018-05-10T03:15:04.552Z,983.15
2018-05-10T03:16:14.569Z,983.09
2018-05-10T03:17:24.313Z,983.1
2018-05-10T03:18:34.147Z,983.12
2018-05-10T03:19:44.162Z,983.14
2018-05-10T03:20:54.174Z,983.16
2018-05-10T03:22:04.250Z,983.17
2018-05-10T03:23:14.001Z,983.16
2018-05-10T03:24:23.745Z,983.15
2018-05-10T03:25:33.763Z,983.18
2018-05-10T03:26:43.779Z,983.17
2018-05-10T03:27:53.789Z,983.18
2018-05-10T03:29:03.538Z,983.16
2018-05-10T03:30:13.549Z,983.17
2018-05-10T03:31:23.616Z,983.21
2018-05-10T03:32:33.643Z,983.24
2018-05-10T03:33:43.117Z,983.23
2018-05-10T03:34:52.856Z,983.21
2018-05-10T03:36:02.877Z,983.17
2018-05-10T03:37:12.360Z,983.16
2018-05-10T03:38:22.107Z,983.14
2018-05-10T03:39:31.314Z,983.17
2018-05-10T03:40:41.060Z,983.2
2018-05-10T03:41:50.880Z,983.2
2018-05-10T03:43:00.901Z,983.19
2018-05-10T03:44:10.917Z,983.18
2018-05-10T03:45:20.931Z,983.21
2018-05-10T03:46:31.003Z,983.16
2018-05-10T03:47:40.697Z,983.2
2018-05-10T03:48:50.703Z,983.19
2018-05-10T03:50:00.175Z,983.22
2018-05-10T03:51:09.653Z,983.22
2018-05-10T03:52:19.672Z,983.19
2018-05-10T03:53:29.149Z,983.18
2018-05-10T03:54:39.160Z,983.2
2018-05-10T03:55:48.907Z,983.18
2018-05-10T03:56:58.923Z,983.18
2018-05-10T03:58:08.672Z,983.19
2018-05-10T03:59:18.424Z,983.19
2018-05-10T04:00:28.167Z,983.22
2018-05-10T04:01:37.910Z,983.24
2018-05-10T04:02:47.939Z,983.24
2018-05-10T04:03:57.689Z,983.24
2018-05-10T04:05:07.438Z,983.23
2018-05-10T04:06:17.446Z,983.26
2018-05-10T04:07:27.458Z,983.21
2018-05-10T04:08:37.210Z,983.21
2018-05-10T04:09:46.689Z,983.23
2018-05-10T04:10:56.718Z,983.25
2018-05-10T04:12:06.737Z,983.26
2018-05-10T04:13:16.748Z,983.26
2018-05-10T04:14:26.759Z,983.27
2018-05-10T04:15:36.050Z,983.3
2018-05-10T04:16:45.891Z,983.29
2018-05-10T04:17:55.631Z,983.26
2018-05-10T04:19:05.716Z,983.29
2018-05-10T04:20:15.204Z,983.23
2018-05-10T04:21:25.216Z,983.26
2018-05-10T04:22:34.967Z,983.25
2018-05-10T04:23:44.979Z,983.17
2018-05-10T04:24:54.993Z,983.24
2018-05-10T04:26:04.473Z,983.23
2018-05-10T04:27:14.221Z,983.24
2018-05-10T04:28:23.698Z,983.23
2018-05-10T04:29:33.708Z,983.23
2018-05-10T04:30:43.724Z,983.24
2018-05-10T04:31:53.729Z,983.24
2018-05-10T04:33:03.507Z,983.24
2018-05-10T04:34:12.985Z,983.23
2018-05-10T04:35:23.000Z,983.23
2018-05-10T04:36:33.013Z,983.19
2018-05-10T04:37:43.025Z,983.22
2018-05-10T04:38:52.503Z,983.21
2018-05-10T04:40:02.248Z,983.17
2018-05-10T04:41:11.990Z,983.16
2018-05-10T04:42:22.369Z,983.16
2018-05-10T04:43:32.205Z,983.16
2018-05-10T04:44:42.213Z,983.14
2018-05-10T04:45:51.963Z,983.17
2018-05-10T04:47:01.965Z,983.17
2018-05-10T04:48:11.712Z,983.16
2018-05-10T04:49:21.727Z,983.12
2018-05-10T04:50:31.473Z,983.17
2018-05-10T04:51:41.219Z,983.15
2018-05-10T04:52:50.811Z,983.17
2018-05-10T04:54:00.445Z,983.17
2018-05-10T04:55:10.187Z,983.17
2018-05-10T04:56:20.207Z,983.17
2018-05-10T04:57:30.224Z,983.23
2018-05-10T04:58:39.984Z,983.23
2018-05-10T04:59:49.728Z,983.2
2018-05-10T05:00:59.736Z,983.21
2018-05-10T05:02:09.755Z,983.18
2018-05-10T05:03:19.274Z,983.16
2018-05-10T05:04:28.908Z,983.2
2018-05-10T05:05:39.021Z,983.19
2018-05-10T05:06:49.031Z,983.18
2018-05-10T05:07:59.051Z,983.2
2018-05-10T05:09:08.820Z,983.21
2018-05-10T05:10:18.576Z,983.25
2018-05-10T05:11:28.598Z,983.21
2018-05-10T05:12:38.609Z,983.22
2018-05-10T05:13:48.357Z,983.22
2018-05-10T05:14:58.375Z,983.23
2018-05-10T05:16:08.132Z,983.23
2018-05-10T05:17:17.357Z,983.27
2018-05-10T05:18:27.101Z,983.3
2018-05-10T05:19:37.109Z,983.3
2018-05-10T05:20:47.117Z,983.3
2018-05-10T05:21:56.327Z,983.27
2018-05-10T05:23:06.440Z,983.25
2018-05-10T05:24:16.450Z,983.26
2018-05-10T05:25:26.206Z,983.26
2018-05-10T05:26:36.218Z,983.26
2018-05-10T05:27:45.708Z,983.24
2018-05-10T05:28:55.182Z,983.24
2018-05-10T05:30:05.206Z,983.26
2018-05-10T05:31:15.218Z,983.24
2018-05-10T05:32:25.233Z,983.23
2018-05-10T05:33:35.251Z,983.3
2018-05-10T05:34:45.278Z,983.31
2018-05-10T05:35:55.291Z,983.29
2018-05-10T05:37:05.310Z,983.27
2018-05-10T05:38:15.052Z,983.29
2018-05-10T05:39:24.797Z,983.27
2018-05-10T05:40:34.737Z,983.28
2018-05-10T05:41:44.750Z,983.26
2018-05-10T05:42:54.492Z,983.25
2018-05-10T05:44:04.240Z,983.23
2018-05-10T05:45:13.980Z,983.26
2018-05-10T05:46:24.001Z,983.22
2018-05-10T05:47:33.747Z,983.21
2018-05-10T05:48:43.756Z,983.18
2018-05-10T05:49:53.773Z,983.22
2018-05-10T05:51:03.251Z,983.18
2018-05-10T05:52:13.432Z,983.2
2018-05-10T05:53:23.458Z,983.18
2018-05-10T05:54:33.476Z,983.23
2018-05-10T05:55:43.495Z,983.23
2018-05-10T05:56:53.523Z,983.2
2018-05-10T05:58:02.996Z,983.18
2018-05-10T05:59:13.013Z,983.17
2018-05-10T06:00:23.030Z,983.18
2018-05-10T06:01:33.053Z,983.19
2018-05-10T06:02:42.800Z,983.2
2018-05-10T06:03:52.552Z,983.17
2018-05-10T06:05:02.047Z,983.22
2018-05-10T06:06:12.055Z,983.2
2018-05-10T06:07:21.531Z,983.21
2018-05-10T06:08:31.006Z,983.18
2018-05-10T06:09:41.343Z,983.15
2018-05-10T06:10:51.095Z,983.16
2018-05-10T06:12:00.846Z,983.19
2018-05-10T06:13:10.587Z,983.16
2018-05-10T06:14:20.332Z,983.14
2018-05-10T06:15:30.413Z,983.16
2018-05-10T06:16:40.788Z,983.13
2018-05-10T06:17:50.810Z,983.15
2018-05-10T06:19:00.825Z,983.15
2018-05-10T06:20:10.299Z,983.14
2018-05-10T06:21:20.310Z,983.1
2018-05-10T06:22:30.328Z,983.14
2018-05-10T06:23:40.366Z,983.13
2018-05-10T06:24:50.445Z,983.05
2018-05-10T06:26:01.002Z,983.09
2018-05-10T06:27:10.756Z,983.09
2018-05-10T06:28:20.512Z,983.08
2018-05-10T06:29:30.520Z,983.1
2018-05-10T06:30:40.529Z,983.11
2018-05-10T06:31:50.541Z,983.11
2018-05-10T06:33:00.553Z,983.13
2018-05-10T06:34:10.312Z,983.06
2018-05-10T06:35:20.057Z,983.05
2018-05-10T06:36:30.069Z,983.02
2018-05-10T06:37:40.081Z,983.06
2018-05-10T06:38:50.101Z,983.04
2018-05-10T06:39:59.582Z,983.04
2018-05-10T06:41:09.335Z,983.02
2018-05-10T06:42:19.076Z,983.01
2018-05-10T06:43:28.818Z,982.98
2018-05-10T06:44:38.298Z,982.97
2018-05-10T06:45:48.318Z,982.99
2018-05-10T06:46:57.900Z,982.94
2018-05-10T06:48:07.740Z,982.93
2018-05-10T06:49:17.231Z,982.95
2018-05-10T06:50:26.711Z,982.93
2018-05-10T06:51:36.471Z,982.95
2018-05-10T06:52:46.219Z,982.95
2018-05-10T06:53:55.968Z,982.93
2018-05-10T06:55:05.982Z,982.86
2018-05-10T06:56:15.998Z,982.9
2018-05-10T06:57:26.024Z,982.89
2018-05-10T06:58:35.787Z,982.88
2018-05-10T06:59:45.528Z,982.87
2018-05-10T07:00:55.556Z,982.87
2018-05-10T07:02:05.040Z,982.89
2018-05-10T07:03:15.125Z,982.89
2018-05-10T07:04:24.873Z,982.83
2018-05-10T07:05:34.619Z,982.91
2018-05-10T07:06:44.366Z,982.85
2018-05-10T07:07:54.108Z,982.84
2018-05-10T07:09:04.119Z,982.83
2018-05-10T07:10:13.868Z,982.82
2018-05-10T07:11:23.884Z,982.83
2018-05-10T07:12:33.903Z,982.81
2018-05-10T07:13:43.440Z,982.84
2018-05-10T07:14:53.215Z,982.83
2018-05-10T07:16:02.966Z,982.84
2018-05-10T07:17:12.718Z,982.8
2018-05-10T07:18:22.731Z,982.82
2018-05-10T07:19:32.745Z,982.83
2018-05-10T07:20:42.227Z,982.82
2018-05-10T07:21:52.253Z,982.81
2018-05-10T07:23:02.283Z,982.89
2018-05-10T07:24:11.769Z,982.89
2018-05-10T07:25:21.640Z,982.89
2018-05-10T07:26:31.525Z,982.9
2018-05-10T07:27:41.272Z,982.93
2018-05-10T07:28:51.016Z,982.96
2018-05-10T07:30:00.761Z,982.95
2018-05-10T07:31:10.559Z,982.98
2018-05-10T07:32:20.311Z,983.02
2018-05-10T07:33:30.341Z,983.02
2018-05-10T07:34:40.360Z,983.04
2018-05-10T07:35:50.101Z,983.1
2018-05-10T07:36:59.851Z,983.06
2018-05-10T07:38:09.339Z,983.08
2018-05-10T07:39:19.364Z,983.07
2018-05-10T07:40:29.399Z,983.01
2018-05-10T07:41:39.493Z,983.03
2018-05-10T07:42:49.343Z,983
2018-05-10T07:43:59.354Z,983
2018-05-10T07:45:09.099Z,983
2018-05-10T07:46:18.849Z,982.98
2018-05-10T07:47:28.894Z,982.99
2018-05-10T07:48:38.726Z,982.97
2018-05-10T07:49:47.941Z,982.97
2018-05-10T07:50:57.955Z,982.9
2018-05-10T07:52:07.974Z,982.94
2018-05-10T07:53:18.109Z,982.91
2018-05-10T07:54:27.722Z,982.91
2018-05-10T07:55:37.505Z,982.9
2018-05-10T07:56:47.528Z,982.88
2018-05-10T07:57:57.556Z,982.91
2018-05-10T07:59:07.304Z,982.87
2018-05-10T08:00:16.781Z,982.86
2018-05-10T08:01:26.523Z,982.9
2018-05-10T08:02:36.545Z,982.88
2018-05-10T08:03:46.298Z,982.85
2018-05-10T08:04:56.042Z,982.86
2018-05-10T08:06:05.795Z,982.84
2018-05-10T08:07:15.809Z,982.84
2018-05-10T08:08:25.895Z,982.83
2018-05-10T08:09:35.912Z,982.79
2018-05-10T08:10:45.923Z,982.76
2018-05-10T08:11:55.145Z,982.74
2018-05-10T08:13:05.162Z,982.8
2018-05-10T08:14:14.379Z,982.74
2018-05-10T08:15:23.866Z,982.71
2018-05-10T08:16:33.881Z,982.7
2018-05-10T08:17:43.890Z,982.7
2018-05-10T08:18:53.115Z,982.63
2018-05-10T08:20:02.600Z,982.6
2018-05-10T08:21:11.810Z,982.61
2018-05-10T08:22:21.569Z,982.66
2018-05-10T08:23:31.683Z,982.69
2018-05-10T08:24:41.159Z,982.67
2018-05-10T08:25:50.370Z,982.65
2018-05-10T08:27:00.380Z,982.65
2018-05-10T08:28:10.397Z,982.64
2018-05-10T08:29:20.146Z,982.66
2018-05-10T08:30:30.173Z,982.63
2018-05-10T08:31:40.025Z,982.67
2018-05-10T08:32:49.771Z,982.66
2018-05-10T08:33:59.810Z,982.62
2018-05-10T08:35:09.293Z,982.59
2018-05-10T08:36:19.331Z,982.62
2018-05-10T08:37:29.299Z,982.6
2018-05-10T08:38:39.338Z,982.56
2018-05-10T08:39:48.556Z,982.51
2018-05-10T08:40:58.035Z,982.52
2018-05-10T08:42:07.793Z,982.49
2018-05-10T08:43:17.808Z,982.47
2018-05-10T08:44:27.300Z,982.44
2018-05-10T08:45:36.780Z,982.41
2018-05-10T08:46:46.259Z,982.42
2018-05-10T08:47:56.275Z,982.46
2018-05-10T08:49:05.755Z,982.4
2018-05-10T08:50:15.507Z,982.39
2018-05-10T08:51:24.728Z,982.37
2018-05-10T08:52:34.949Z,982.37
2018-05-10T08:53:44.434Z,982.36
2018-05-10T08:54:54.451Z,982.37
2018-05-10T08:56:04.477Z,982.38
2018-05-10T08:57:14.224Z,982.38
2018-05-10T08:58:24.242Z,982.36
2018-05-10T08:59:33.991Z,982.33
2018-05-10T09:00:43.742Z,982.4
2018-05-10T09:01:53.227Z,982.38
2018-05-10T09:03:02.712Z,982.38
2018-05-10T09:04:12.734Z,982.35
2018-05-10T09:05:22.214Z,982.34
2018-05-10T09:06:31.972Z,982.39
2018-05-10T09:07:41.722Z,982.34
2018-05-10T09:08:51.469Z,982.35
2018-05-10T09:10:01.487Z,982.31
2018-05-10T09:11:11.234Z,982.27
2018-05-10T09:12:21.247Z,982.27
2018-05-10T09:13:31.003Z,982.27
2018-05-10T09:14:40.761Z,982.23
2018-05-10T09:15:50.776Z,982.22
2018-05-10T09:17:00.530Z,982.2
2018-05-10T09:18:10.281Z,982.13
2018-05-10T09:19:20.299Z,982.15
2018-05-10T09:20:30.059Z,982.17
2018-05-10T09:21:40.077Z,982.19
2018-05-10T09:22:50.091Z,982.12
2018-05-10T09:23:59.839Z,982.15
2018-05-10T09:25:09.606Z,982.12
2018-05-10T09:26:19.085Z,982.07
2018-05-10T09:27:28.666Z,982.08
2018-05-10T09:28:38.681Z,982.06
2018-05-10T09:29:48.703Z,982.08
2018-05-10T09:30:58.719Z,982.07
2018-05-10T09:32:08.468Z,982.05
2018-05-10T09:33:18.214Z,982.02
2018-05-10T09:34:28.037Z,982.03
2018-05-10T09:35:38.057Z,982
2018-05-10T09:36:48.075Z,982.02
2018-05-10T09:37:58.093Z,981.99
2018-05-10T09:39:08.183Z,982.01
2018-05-10T09:40:18.132Z,982
2018-05-10T09:41:28.150Z,982.02
2018-05-10T09:42:37.896Z,981.99
2018-05-10T09:43:47.912Z,981.93
2018-05-10T09:44:57.979Z,981.88
2018-05-10T09:46:07.237Z,981.86
2018-05-10T09:47:16.965Z,981.81
2018-05-10T09:48:27.010Z,981.81
2018-05-10T09:49:37.032Z,981.76
2018-05-10T09:50:47.196Z,981.77
2018-05-10T09:51:57.209Z,981.75
2018-05-10T09:53:07.243Z,981.77
2018-05-10T09:54:17.013Z,981.8
2018-05-10T09:55:26.766Z,981.82
2018-05-10T09:56:36.789Z,981.79
2018-05-10T09:57:46.808Z,981.7
2018-05-10T09:58:56.837Z,981.73
2018-05-10T10:00:06.678Z,981.68
2018-05-10T10:01:16.433Z,981.68
2018-05-10T10:02:25.698Z,981.68
2018-05-10T10:03:35.451Z,981.68
2018-05-10T10:04:45.536Z,981.64
2018-05-10T10:05:55.018Z,981.6
2018-05-10T10:07:04.773Z,981.53
2018-05-10T10:08:14.523Z,981.56
2018-05-10T10:09:24.275Z,981.55
2018-05-10T10:10:34.044Z,981.49
2018-05-10T10:11:44.143Z,981.51
2018-05-10T10:12:53.819Z,981.48
2018-05-10T10:14:03.842Z,981.5
2018-05-10T10:15:13.594Z,981.51
2018-05-10T10:16:23.076Z,981.49
2018-05-10T10:17:32.858Z,981.5
2018-05-10T10:18:42.843Z,981.46
2018-05-10T10:19:52.867Z,981.45
2018-05-10T10:21:02.625Z,981.49
2018-05-10T10:22:12.110Z,981.43
2018-05-10T10:23:21.863Z,981.43
2018-05-10T10:24:31.901Z,981.45
2018-05-10T10:25:41.929Z,981.44
2018-05-10T10:26:51.950Z,981.36
2018-05-10T10:28:01.443Z,981.4
2018-05-10T10:29:11.460Z,981.42
2018-05-10T10:30:20.951Z,981.36
2018-05-10T10:31:31.330Z,981.31
2018-05-10T10:32:41.097Z,981.3
2018-05-10T10:33:50.861Z,981.37
2018-05-10T10:35:00.611Z,981.39
2018-05-10T10:36:10.637Z,981.33
2018-05-10T10:37:20.390Z,981.36
2018-05-10T10:38:30.408Z,981.37
2018-05-10T10:39:40.158Z,981.36
2018-05-10T10:40:49.908Z,981.31
2018-05-10T10:41:59.658Z,981.32
2018-05-10T10:43:09.687Z,981.31
2018-05-10T10:44:19.170Z,981.26
2018-05-10T10:45:29.037Z,981.23
2018-05-10T10:46:39.197Z,981.21
2018-05-10T10:47:49.212Z,981.24
2018-05-10T10:48:59.237Z,981.21
2018-05-10T10:50:08.716Z,981.26
2018-05-10T10:51:18.749Z,981.14
2018-05-10T10:52:28.771Z,981.15
2018-05-10T10:53:38.525Z,981.04
2018-05-10T10:54:48.466Z,981.06
2018-05-10T10:55:58.504Z,981.13
2018-05-10T10:57:08.255Z,981.12
2018-05-10T10:58:18.276Z,981.03
2018-05-10T10:59:28.038Z,981.05
2018-05-10T11:00:38.054Z,981.06
2018-05-10T11:01:47.834Z,981.06
2018-05-10T11:02:57.451Z,981.08
2018-05-10T11:04:07.201Z,981.06
2018-05-10T11:05:17.231Z,980.97
2018-05-10T11:06:26.979Z,981.01
2018-05-10T11:07:36.730Z,980.95
2018-05-10T11:08:46.784Z,980.89
2018-05-10T11:09:56.937Z,980.94
2018-05-10T11:11:06.424Z,980.88
2018-05-10T11:12:16.192Z,980.8
2018-05-10T11:13:25.676Z,980.79
2018-05-10T11:14:35.700Z,980.81
2018-05-10T11:15:45.458Z,980.79
2018-05-10T11:16:55.485Z,980.76
2018-05-10T11:18:05.255Z,980.72
2018-05-10T11:19:15.287Z,980.76
2018-05-10T11:20:24.506Z,980.74
2018-05-10T11:21:34.532Z,980.73
2018-05-10T11:22:44.340Z,980.73
2018-05-10T11:23:53.921Z,980.74
2018-05-10T11:25:03.677Z,980.7
2018-05-10T11:26:12.357Z,980.66
2018-05-10T11:27:22.474Z,980.66
2018-05-10T11:28:32.402Z,980.88
2018-05-10T11:29:42.262Z,980.9
2018-05-10T11:30:52.286Z,980.89
2018-05-10T11:32:01.772Z,980.75
2018-05-10T11:33:11.541Z,980.81
2018-05-10T11:34:22.048Z,980.52
2018-05-10T11:35:31.816Z,980.57
2018-05-10T11:36:41.948Z,980.75
2018-05-10T11:37:51.972Z,980.84
2018-05-10T11:39:01.733Z,980.56
2018-05-10T11:40:12.092Z,980.95
2018-05-10T11:41:22.128Z,980.96
2018-05-10T11:42:31.376Z,980.9
2018-05-10T11:43:40.594Z,980.56
2018-05-10T11:44:50.353Z,980.69
2018-05-10T11:46:00.380Z,980.86
2018-05-10T11:47:09.598Z,980.91
2018-05-10T11:48:19.633Z,980.83
2018-05-10T11:49:29.395Z,980.67
2018-05-10T11:50:38.885Z,980.57
2018-05-10T11:51:48.921Z,980.7
2018-05-10T11:52:58.688Z,980.71
2018-05-10T11:54:08.711Z,980.64
2018-05-10T11:55:18.474Z,980.64
2018-05-10T11:56:27.972Z,980.61
2018-05-10T11:57:37.728Z,980.47
2018-05-10T11:58:47.493Z,980.72
2018-05-10T11:59:56.990Z,980.76
2018-05-10T12:01:06.761Z,980.22
2018-05-10T12:02:16.794Z,980.46
2018-05-10T12:03:26.729Z,980.59
2018-05-10T12:04:36.762Z,980.53
2018-05-10T12:05:46.524Z,980.54
2018-05-10T12:06:56.555Z,980.53
2018-05-10T12:08:05.778Z,980.55
2018-05-10T12:09:15.799Z,980.43
2018-05-10T12:10:25.391Z,980.63
2018-05-10T12:11:35.427Z,980.34
2018-05-10T12:12:45.450Z,980.44
2018-05-10T12:13:55.212Z,980.51
2018-05-10T12:15:05.249Z,980.5
2018-05-10T12:16:14.739Z,980.51
2018-05-10T12:17:24.236Z,980.55
2018-05-10T12:18:34.266Z,980.43
2018-05-10T12:19:44.293Z,980.36
2018-05-10T12:20:54.320Z,980.5
2018-05-10T12:22:03.807Z,980.39
2018-05-10T12:23:13.570Z,980.4
2018-05-10T12:24:23.328Z,980.31
2018-05-10T12:25:32.571Z,980.37
2018-05-10T12:26:42.663Z,980.3
2018-05-10T12:27:52.691Z,980.37
2018-05-10T12:29:02.444Z,980.24
2018-05-10T12:30:11.930Z,980.37
2018-05-10T12:31:22.138Z,980.32
2018-05-10T12:32:31.623Z,980.73
2018-05-10T12:33:41.653Z,980.24
2018-05-10T12:34:51.143Z,980.26
2018-05-10T12:36:01.222Z,980.65
2018-05-10T12:37:11.269Z,980.57
2018-05-10T12:38:21.078Z,980.47
2018-05-10T12:39:30.832Z,980.52
2018-05-10T12:40:40.327Z,980.53
2018-05-10T12:41:50.092Z,980.45
2018-05-10T12:43:00.112Z,980.35
2018-05-10T12:44:10.141Z,980.16
2018-05-10T12:45:19.630Z,980.35
2018-05-10T12:46:29.391Z,980.4
2018-05-10T12:47:39.529Z,980.35
2018-05-10T12:48:49.288Z,980.2
2018-05-10T12:49:59.046Z,980.42
2018-05-10T12:51:08.545Z,980.33
2018-05-10T12:52:18.578Z,980.38
2018-05-10T12:53:28.342Z,980.43
2018-05-10T12:54:38.178Z,980.41
2018-05-10T12:55:48.209Z,980.39
2018-05-10T12:56:57.703Z,980.32
2018-05-10T12:58:07.470Z,980.44
2018-05-10T12:59:16.977Z,979.86
2018-05-10T13:00:27.014Z,979.8
2018-05-10T13:01:36.506Z,979.86
2018-05-10T13:02:46.330Z,980.48
2018-05-10T13:03:56.559Z,980.45
2018-05-10T13:05:05.793Z,980.58
2018-05-10T13:06:15.826Z,980.38
2018-05-10T13:07:25.860Z,980.44
2018-05-10T13:08:35.620Z,980.35
2018-05-10T13:09:45.177Z,980.31
2018-05-10T13:10:54.939Z,980.18
2018-05-10T13:12:04.441Z,980.16
2018-05-10T13:13:13.984Z,980.09
2018-05-10T13:14:23.646Z,980.31
2018-05-10T13:15:32.872Z,980.35
2018-05-10T13:16:42.978Z,980.35
2018-05-10T13:17:53.017Z,980.3
2018-05-10T13:19:03.049Z,980.34
2018-05-10T13:20:13.089Z,980.3
2018-05-10T13:21:22.590Z,980.2
2018-05-10T13:22:32.092Z,980.17
2018-05-10T13:23:41.857Z,980.07
2018-05-10T13:24:51.367Z,979.94
2018-05-10T13:26:01.126Z,980.24
2018-05-10T13:27:10.420Z,980.31
2018-05-10T13:28:20.765Z,980.1
2018-05-10T13:29:30.802Z,980.06
2018-05-10T13:30:40.564Z,979.88
2018-05-10T13:31:50.825Z,980.2
2018-05-10T13:33:00.867Z,980.05
2018-05-10T13:34:10.894Z,979.77
2018-05-10T13:35:20.660Z,979.72
2018-05-10T13:36:30.421Z,979.91
2018-05-10T13:37:39.970Z,979.74
2018-05-10T13:38:49.730Z,979.81
2018-05-10T13:39:59.226Z,979.96
2018-05-10T13:41:08.718Z,979.86
2018-05-10T13:42:18.488Z,979.92
2018-05-10T13:43:28.011Z,979.92
2018-05-10T13:44:37.773Z,979.89
2018-05-10T13:45:47.545Z,980.03
2018-05-10T13:46:57.313Z,979.92
2018-05-10T13:48:07.623Z,979.88
2018-05-10T13:49:17.762Z,979.75
2018-05-10T13:50:27.823Z,979.92
2018-05-10T13:51:37.580Z,979.92
2018-05-10T13:52:47.073Z,980
2018-05-10T13:53:57.149Z,980.22
2018-05-10T13:55:07.181Z,980.18
2018-05-10T13:56:17.213Z,980.26
2018-05-10T13:57:26.977Z,980.26
2018-05-10T13:58:36.747Z,980.21
2018-05-10T13:59:46.768Z,980.09
2018-05-10T14:00:56.793Z,980.1
2018-05-10T14:02:06.287Z,980.34
2018-05-10T14:03:16.071Z,980.21
2018-05-10T14:04:26.097Z,980.3
2018-05-10T14:05:36.192Z,980.31
2018-05-10T14:06:45.960Z,980.19
2018-05-10T14:07:55.718Z,980.41
2018-05-10T14:09:05.747Z,980.38
2018-05-10T14:10:15.246Z,980.54
2018-05-10T14:11:25.272Z,980.88
2018-05-10T14:12:35.036Z,980.96
2018-05-10T14:13:44.535Z,980.85
2018-05-10T14:14:54.562Z,980.95
2018-05-10T14:16:04.329Z,980.93
2018-05-10T14:17:13.546Z,980.97
2018-05-10T14:18:23.303Z,980.9
2018-05-10T14:19:32.791Z,980.66
2018-05-10T14:20:42.554Z,980.47
2018-05-10T14:21:52.042Z,980.5
2018-05-10T14:23:02.244Z,980.82
2018-05-10T14:24:12.056Z,980.73
2018-05-10T14:25:21.894Z,980.72
2018-05-10T14:26:31.959Z,980.69
2018-05-10T14:27:41.729Z,980.36
2018-05-10T14:28:51.756Z,980.84
2018-05-10T14:30:00.724Z,980.9
2018-05-10T14:31:10.055Z,980.98
2018-05-10T14:32:20.134Z,980.87
2018-05-10T14:33:30.071Z,980.89
2018-05-10T14:34:40.108Z,980.91
2018-05-10T14:35:50.247Z,980.43
2018-05-10T14:37:00.286Z,980.92